sensor_id;sensor_type;location;lat;lon;timestamp;temperature;humidity
14527;DHT22;7350;51.208;4.238;2023-03-24T00:00:33;18.20;99.90
14527;DHT22;7350;51.208;4.238;2023-03-24T00:03:00;18.30;99.90
14527;DHT22;7350;51.208;4.238;2023-03-24T00:05:29;18.20;99.90
14527;DHT22;7350;51.208;4.238;2023-03-24T00:07:56;18.20;99.90
14527;DHT22;7350;51.208;4.238;2023-03-24T00:10:24;18.20;99.90
14527;DHT22;7350;51.208;4.238;2023-03-24T00:12:55;18.20;99.90
14527;DHT22;7350;51.208;4.238;2023-03-24T00:15:24;18.20;99.90
14527;DHT22;7350;51.208;4.238;2023-03-24T00:17:51;18.20;99.90
14527;DHT22;7350;51.208;4.238;2023-03-24T00:20:22;18.20;99.90
14527;DHT22;7350;51.208;4.238;2023-03-24T00:22:52;18.20;99.90
14527;DHT22;7350;51.208;4.238;2023-03-24T00:25:24;18.20;99.90
14527;DHT22;7350;51.208;4.238;2023-03-24T00:27:53;18.20;99.90
14527;DHT22;7350;51.208;4.238;2023-03-24T00:30:20;18.20;99.90
14527;DHT22;7350;51.208;4.238;2023-03-24T00:32:50;18.20;99.90
14527;DHT22;7350;51.208;4.238;2023-03-24T00:35:17;18.20;99.90
14527;DHT22;7350;51.208;4.238;2023-03-24T00:37:45;18.20;99.90
14527;DHT22;7350;51.208;4.238;2023-03-24T00:40:15;18.20;99.90
14527;DHT22;7350;51.208;4.238;2023-03-24T00:42:43;18.20;99.90
14527;DHT22;7350;51.208;4.238;2023-03-24T00:45:13;18.20;99.90
14527;DHT22;7350;51.208;4.238;2023-03-24T00:47:41;18.20;99.90
14527;DHT22;7350;51.208;4.238;2023-03-24T00:50:11;18.20;99.90
14527;DHT22;7350;51.208;4.238;2023-03-24T00:52:39;18.20;99.90
14527;DHT22;7350;51.208;4.238;2023-03-24T00:55:10;18.20;99.90
14527;DHT22;7350;51.208;4.238;2023-03-24T00:57:43;18.20;99.90
14527;DHT22;7350;51.208;4.238;2023-03-24T01:00:16;18.20;99.90
14527;DHT22;7350;51.208;4.238;2023-03-24T01:02:46;18.20;99.90
14527;DHT22;7350;51.208;4.238;2023-03-24T01:05:13;18.20;99.90
14527;DHT22;7350;51.208;4.238;2023-03-24T01:07:42;18.20;99.90
14527;DHT22;7350;51.208;4.238;2023-03-24T01:10:12;18.20;99.90
14527;DHT22;7350;51.208;4.238;2023-03-24T01:12:41;18.20;99.90
14527;DHT22;7350;51.208;4.238;2023-03-24T01:15:13;18.10;99.90
14527;DHT22;7350;51.208;4.238;2023-03-24T01:17:41;18.10;99.90
14527;DHT22;7350;51.208;4.238;2023-03-24T01:20:09;18.20;99.90
14527;DHT22;7350;51.208;4.238;2023-03-24T01:22:39;18.10;99.90
14527;DHT22;7350;51.208;4.238;2023-03-24T01:25:11;18.10;99.90
14527;DHT22;7350;51.208;4.238;2023-03-24T01:27:40;18.10;99.90
14527;DHT22;7350;51.208;4.238;2023-03-24T01:30:10;18.10;99.90
14527;DHT22;7350;51.208;4.238;2023-03-24T01:32:37;18.10;99.90
14527;DHT22;7350;51.208;4.238;2023-03-24T01:35:05;18.10;99.90
14527;DHT22;7350;51.208;4.238;2023-03-24T01:37:32;18.10;99.90
14527;DHT22;7350;51.208;4.238;2023-03-24T01:39:59;18.10;99.90
14527;DHT22;7350;51.208;4.238;2023-03-24T01:42:27;18.10;99.90
14527;DHT22;7350;51.208;4.238;2023-03-24T01:44:58;18.10;99.90
14527;DHT22;7350;51.208;4.238;2023-03-24T01:47:26;18.10;99.90
14527;DHT22;7350;51.208;4.238;2023-03-24T01:49:57;18.10;99.90
14527;DHT22;7350;51.208;4.238;2023-03-24T01:52:30;18.10;99.90
14527;DHT22;7350;51.208;4.238;2023-03-24T01:55:02;18.10;99.90
14527;DHT22;7350;51.208;4.238;2023-03-24T01:57:35;18.10;99.90
14527;DHT22;7350;51.208;4.238;2023-03-24T02:00:07;18.10;99.90
14527;DHT22;7350;51.208;4.238;2023-03-24T02:02:35;18.10;99.90
14527;DHT22;7350;51.208;4.238;2023-03-24T02:05:05;18.10;99.90
14527;DHT22;7350;51.208;4.238;2023-03-24T02:07:37;18.10;99.90
14527;DHT22;7350;51.208;4.238;2023-03-24T02:10:08;18.10;99.90
14527;DHT22;7350;51.208;4.238;2023-03-24T02:12:35;18.10;99.90
14527;DHT22;7350;51.208;4.238;2023-03-24T02:15:05;18.10;99.90
14527;DHT22;7350;51.208;4.238;2023-03-24T02:17:50;18.10;99.90
14527;DHT22;7350;51.208;4.238;2023-03-24T02:20:38;18.10;99.90
14527;DHT22;7350;51.208;4.238;2023-03-24T02:23:33;18.10;99.90
14527;DHT22;7350;51.208;4.238;2023-03-24T02:26:38;18.10;99.90
14527;DHT22;7350;51.208;4.238;2023-03-24T02:35:46;18.00;99.90
14527;DHT22;7350;51.208;4.238;2023-03-24T02:38:34;18.00;99.90
14527;DHT22;7350;51.208;4.238;2023-03-24T02:41:12;18.00;99.90
14527;DHT22;7350;51.208;4.238;2023-03-24T02:43:48;18.00;99.90
14527;DHT22;7350;51.208;4.238;2023-03-24T02:46:23;18.00;99.90
14527;DHT22;7350;51.208;4.238;2023-03-24T02:49:08;18.00;99.90
14527;DHT22;7350;51.208;4.238;2023-03-24T02:51:41;18.00;99.90
14527;DHT22;7350;51.208;4.238;2023-03-24T02:54:16;18.00;99.90
14527;DHT22;7350;51.208;4.238;2023-03-24T02:56:48;18.00;99.90
14527;DHT22;7350;51.208;4.238;2023-03-24T02:59:21;18.00;99.90
14527;DHT22;7350;51.208;4.238;2023-03-24T03:01:53;18.00;99.90
14527;DHT22;7350;51.208;4.238;2023-03-24T03:04:27;18.00;99.90
14527;DHT22;7350;51.208;4.238;2023-03-24T03:07:00;18.00;99.90
14527;DHT22;7350;51.208;4.238;2023-03-24T03:09:32;18.00;99.90
14527;DHT22;7350;51.208;4.238;2023-03-24T03:12:03;18.00;99.90
14527;DHT22;7350;51.208;4.238;2023-03-24T03:14:34;18.00;99.90
14527;DHT22;7350;51.208;4.238;2023-03-24T03:17:06;18.00;99.90
14527;DHT22;7350;51.208;4.238;2023-03-24T03:19:37;18.00;99.90
14527;DHT22;7350;51.208;4.238;2023-03-24T03:22:10;18.00;99.90
14527;DHT22;7350;51.208;4.238;2023-03-24T03:24:41;18.00;99.90
14527;DHT22;7350;51.208;4.238;2023-03-24T03:27:15;18.00;99.90
14527;DHT22;7350;51.208;4.238;2023-03-24T03:29:48;17.90;99.90
14527;DHT22;7350;51.208;4.238;2023-03-24T03:32:21;17.90;99.90
14527;DHT22;7350;51.208;4.238;2023-03-24T03:34:53;17.80;99.90
14527;DHT22;7350;51.208;4.238;2023-03-24T03:37:27;17.80;99.90
14527;DHT22;7350;51.208;4.238;2023-03-24T03:39:58;17.90;99.90
14527;DHT22;7350;51.208;4.238;2023-03-24T03:42:28;17.90;99.90
14527;DHT22;7350;51.208;4.238;2023-03-24T03:44:56;17.90;99.90
14527;DHT22;7350;51.208;4.238;2023-03-24T03:47:23;17.90;99.90
14527;DHT22;7350;51.208;4.238;2023-03-24T03:49:50;17.90;99.90
14527;DHT22;7350;51.208;4.238;2023-03-24T03:52:18;17.80;99.90
14527;DHT22;7350;51.208;4.238;2023-03-24T03:54:46;17.80;99.90
14527;DHT22;7350;51.208;4.238;2023-03-24T03:57:13;17.80;99.90
14527;DHT22;7350;51.208;4.238;2023-03-24T03:59:43;17.80;99.90
14527;DHT22;7350;51.208;4.238;2023-03-24T04:02:24;17.80;99.90
14527;DHT22;7350;51.208;4.238;2023-03-24T04:08:03;17.80;99.90
14527;DHT22;7350;51.208;4.238;2023-03-24T04:10:42;17.80;99.90
14527;DHT22;7350;51.208;4.238;2023-03-24T04:13:20;17.80;99.90
14527;DHT22;7350;51.208;4.238;2023-03-24T04:15:53;17.70;99.90
14527;DHT22;7350;51.208;4.238;2023-03-24T04:18:39;17.80;99.90
14527;DHT22;7350;51.208;4.238;2023-03-24T04:21:25;17.70;99.90
14527;DHT22;7350;51.208;4.238;2023-03-24T04:24:06;17.70;99.90
14527;DHT22;7350;51.208;4.238;2023-03-24T04:26:42;17.80;99.90
14527;DHT22;7350;51.208;4.238;2023-03-24T04:29:14;17.80;99.90
14527;DHT22;7350;51.208;4.238;2023-03-24T04:31:49;17.80;99.90
14527;DHT22;7350;51.208;4.238;2023-03-24T04:34:20;17.80;99.90
14527;DHT22;7350;51.208;4.238;2023-03-24T04:36:52;17.80;99.90
14527;DHT22;7350;51.208;4.238;2023-03-24T04:39:22;17.80;99.90
14527;DHT22;7350;51.208;4.238;2023-03-24T04:41:54;17.80;99.90
14527;DHT22;7350;51.208;4.238;2023-03-24T04:44:22;17.70;99.90
14527;DHT22;7350;51.208;4.238;2023-03-24T04:46:54;17.70;99.90
14527;DHT22;7350;51.208;4.238;2023-03-24T04:49:22;17.70;99.90
14527;DHT22;7350;51.208;4.238;2023-03-24T04:51:50;17.60;99.90
14527;DHT22;7350;51.208;4.238;2023-03-24T04:54:17;17.60;99.90
14527;DHT22;7350;51.208;4.238;2023-03-24T04:56:45;17.60;99.90
14527;DHT22;7350;51.208;4.238;2023-03-24T04:59:13;17.60;99.90
14527;DHT22;7350;51.208;4.238;2023-03-24T05:01:41;17.60;99.90
14527;DHT22;7350;51.208;4.238;2023-03-24T05:04:16;17.60;99.90
14527;DHT22;7350;51.208;4.238;2023-03-24T05:06:44;17.60;99.90
14527;DHT22;7350;51.208;4.238;2023-03-24T05:09:11;17.70;99.90
14527;DHT22;7350;51.208;4.238;2023-03-24T05:11:39;17.70;99.90
14527;DHT22;7350;51.208;4.238;2023-03-24T05:14:06;17.70;99.90
14527;DHT22;7350;51.208;4.238;2023-03-24T05:16:33;17.70;99.90
14527;DHT22;7350;51.208;4.238;2023-03-24T05:19:01;17.80;99.90
14527;DHT22;7350;51.208;4.238;2023-03-24T05:21:31;17.80;99.90
14527;DHT22;7350;51.208;4.238;2023-03-24T05:23:58;17.80;99.90
14527;DHT22;7350;51.208;4.238;2023-03-24T05:26:25;17.70;99.90
14527;DHT22;7350;51.208;4.238;2023-03-24T05:28:52;17.70;99.90
14527;DHT22;7350;51.208;4.238;2023-03-24T05:31:19;17.80;99.90
14527;DHT22;7350;51.208;4.238;2023-03-24T05:33:46;17.70;99.90
14527;DHT22;7350;51.208;4.238;2023-03-24T05:36:14;17.80;99.90
14527;DHT22;7350;51.208;4.238;2023-03-24T05:38:42;17.70;99.90
14527;DHT22;7350;51.208;4.238;2023-03-24T05:41:09;17.70;99.90
14527;DHT22;7350;51.208;4.238;2023-03-24T05:43:36;17.80;99.90
14527;DHT22;7350;51.208;4.238;2023-03-24T05:46:04;17.80;99.90
14527;DHT22;7350;51.208;4.238;2023-03-24T05:48:31;17.90;99.90
14527;DHT22;7350;51.208;4.238;2023-03-24T05:50:58;17.90;99.90
14527;DHT22;7350;51.208;4.238;2023-03-24T05:53:25;18.00;99.90
14527;DHT22;7350;51.208;4.238;2023-03-24T05:55:53;18.00;99.90
14527;DHT22;7350;51.208;4.238;2023-03-24T05:58:23;18.10;99.90
14527;DHT22;7350;51.208;4.238;2023-03-24T06:00:50;18.20;99.90
14527;DHT22;7350;51.208;4.238;2023-03-24T06:03:19;18.20;99.90
14527;DHT22;7350;51.208;4.238;2023-03-24T06:05:46;18.20;99.90
14527;DHT22;7350;51.208;4.238;2023-03-24T06:08:14;18.20;99.90
14527;DHT22;7350;51.208;4.238;2023-03-24T06:10:41;18.30;99.90
14527;DHT22;7350;51.208;4.238;2023-03-24T06:13:10;18.30;99.90
14527;DHT22;7350;51.208;4.238;2023-03-24T06:15:37;18.40;99.90
14527;DHT22;7350;51.208;4.238;2023-03-24T06:18:07;18.40;99.90
14527;DHT22;7350;51.208;4.238;2023-03-24T06:20:34;18.50;99.90
14527;DHT22;7350;51.208;4.238;2023-03-24T06:23:01;18.50;99.90
14527;DHT22;7350;51.208;4.238;2023-03-24T06:25:28;18.60;99.90
14527;DHT22;7350;51.208;4.238;2023-03-24T06:27:55;18.60;99.90
14527;DHT22;7350;51.208;4.238;2023-03-24T06:30:29;18.70;99.90
14527;DHT22;7350;51.208;4.238;2023-03-24T06:32:56;18.70;99.90
14527;DHT22;7350;51.208;4.238;2023-03-24T06:35:23;18.80;99.90
14527;DHT22;7350;51.208;4.238;2023-03-24T06:37:50;18.80;99.90
14527;DHT22;7350;51.208;4.238;2023-03-24T06:40:17;18.80;99.90
14527;DHT22;7350;51.208;4.238;2023-03-24T06:42:45;18.90;99.90
14527;DHT22;7350;51.208;4.238;2023-03-24T06:45:12;18.90;99.90
14527;DHT22;7350;51.208;4.238;2023-03-24T06:47:41;19.00;99.90
14527;DHT22;7350;51.208;4.238;2023-03-24T06:50:09;19.00;99.90
14527;DHT22;7350;51.208;4.238;2023-03-24T06:52:36;19.00;99.90
14527;DHT22;7350;51.208;4.238;2023-03-24T06:55:04;19.10;99.90
14527;DHT22;7350;51.208;4.238;2023-03-24T06:57:32;19.10;99.90
14527;DHT22;7350;51.208;4.238;2023-03-24T06:59:59;19.10;99.90
14527;DHT22;7350;51.208;4.238;2023-03-24T07:02:30;19.10;99.90
14527;DHT22;7350;51.208;4.238;2023-03-24T07:05:01;19.10;99.90
14527;DHT22;7350;51.208;4.238;2023-03-24T07:07:31;19.10;99.90
14527;DHT22;7350;51.208;4.238;2023-03-24T07:09:59;19.10;99.90
14527;DHT22;7350;51.208;4.238;2023-03-24T07:12:27;19.10;99.90
14527;DHT22;7350;51.208;4.238;2023-03-24T07:14:54;19.10;99.90
14527;DHT22;7350;51.208;4.238;2023-03-24T07:17:21;19.10;99.90
14527;DHT22;7350;51.208;4.238;2023-03-24T07:19:48;19.00;99.90
14527;DHT22;7350;51.208;4.238;2023-03-24T07:22:16;18.90;99.90
14527;DHT22;7350;51.208;4.238;2023-03-24T07:24:45;18.90;99.90
14527;DHT22;7350;51.208;4.238;2023-03-24T07:27:12;18.90;99.90
14527;DHT22;7350;51.208;4.238;2023-03-24T07:29:40;18.90;99.90
14527;DHT22;7350;51.208;4.238;2023-03-24T07:32:07;18.90;99.90
14527;DHT22;7350;51.208;4.238;2023-03-24T07:34:34;18.90;99.90
14527;DHT22;7350;51.208;4.238;2023-03-24T07:37:03;18.80;99.90
14527;DHT22;7350;51.208;4.238;2023-03-24T07:39:32;18.80;99.90
14527;DHT22;7350;51.208;4.238;2023-03-24T07:41:59;18.70;99.90
14527;DHT22;7350;51.208;4.238;2023-03-24T07:44:26;18.70;99.90
14527;DHT22;7350;51.208;4.238;2023-03-24T07:46:53;18.70;99.90
14527;DHT22;7350;51.208;4.238;2023-03-24T07:49:20;18.60;99.90
14527;DHT22;7350;51.208;4.238;2023-03-24T07:51:47;18.60;99.90
14527;DHT22;7350;51.208;4.238;2023-03-24T07:54:14;18.60;99.90
14527;DHT22;7350;51.208;4.238;2023-03-24T07:56:42;18.50;99.90
14527;DHT22;7350;51.208;4.238;2023-03-24T07:59:09;18.50;99.90
14527;DHT22;7350;51.208;4.238;2023-03-24T08:01:36;18.60;99.90
14527;DHT22;7350;51.208;4.238;2023-03-24T08:04:04;18.60;99.90
14527;DHT22;7350;51.208;4.238;2023-03-24T08:06:31;18.50;99.90
14527;DHT22;7350;51.208;4.238;2023-03-24T08:08:58;18.40;99.90
14527;DHT22;7350;51.208;4.238;2023-03-24T08:11:25;18.50;99.90
14527;DHT22;7350;51.208;4.238;2023-03-24T08:13:54;18.50;99.90
14527;DHT22;7350;51.208;4.238;2023-03-24T08:16:22;18.40;99.90
14527;DHT22;7350;51.208;4.238;2023-03-24T08:18:50;18.40;99.90
14527;DHT22;7350;51.208;4.238;2023-03-24T08:21:17;18.30;99.90
14527;DHT22;7350;51.208;4.238;2023-03-24T08:23:44;18.30;99.90
14527;DHT22;7350;51.208;4.238;2023-03-24T08:26:11;18.20;99.90
14527;DHT22;7350;51.208;4.238;2023-03-24T08:28:38;18.30;99.90
14527;DHT22;7350;51.208;4.238;2023-03-24T08:31:07;18.30;99.90
14527;DHT22;7350;51.208;4.238;2023-03-24T08:33:35;18.30;99.90
14527;DHT22;7350;51.208;4.238;2023-03-24T08:36:02;18.30;99.90
14527;DHT22;7350;51.208;4.238;2023-03-24T08:38:29;18.30;99.90
14527;DHT22;7350;51.208;4.238;2023-03-24T08:40:57;18.30;99.90
14527;DHT22;7350;51.208;4.238;2023-03-24T08:43:27;18.30;99.90
14527;DHT22;7350;51.208;4.238;2023-03-24T08:45:55;18.30;99.90
14527;DHT22;7350;51.208;4.238;2023-03-24T08:48:23;18.30;99.90
14527;DHT22;7350;51.208;4.238;2023-03-24T08:50:50;18.30;99.90
14527;DHT22;7350;51.208;4.238;2023-03-24T08:53:18;18.30;99.90
14527;DHT22;7350;51.208;4.238;2023-03-24T08:55:45;18.30;99.90
14527;DHT22;7350;51.208;4.238;2023-03-24T08:58:13;18.30;99.90
14527;DHT22;7350;51.208;4.238;2023-03-24T09:00:41;18.30;99.90
14527;DHT22;7350;51.208;4.238;2023-03-24T09:03:11;18.30;99.90
14527;DHT22;7350;51.208;4.238;2023-03-24T09:05:39;18.30;99.90
14527;DHT22;7350;51.208;4.238;2023-03-24T09:08:06;18.40;99.90
14527;DHT22;7350;51.208;4.238;2023-03-24T09:10:33;18.40;99.90
14527;DHT22;7350;51.208;4.238;2023-03-24T09:13:00;18.40;99.90
14527;DHT22;7350;51.208;4.238;2023-03-24T09:15:28;18.40;99.90
14527;DHT22;7350;51.208;4.238;2023-03-24T09:17:55;18.30;99.90
14527;DHT22;7350;51.208;4.238;2023-03-24T09:20:22;18.30;99.90
14527;DHT22;7350;51.208;4.238;2023-03-24T09:22:51;18.30;99.90
14527;DHT22;7350;51.208;4.238;2023-03-24T09:25:20;18.30;99.90
14527;DHT22;7350;51.208;4.238;2023-03-24T09:27:47;18.30;99.90
14527;DHT22;7350;51.208;4.238;2023-03-24T09:30:16;18.30;99.90
14527;DHT22;7350;51.208;4.238;2023-03-24T09:32:44;18.30;99.90
14527;DHT22;7350;51.208;4.238;2023-03-24T09:35:11;18.30;99.90
14527;DHT22;7350;51.208;4.238;2023-03-24T09:37:40;18.30;99.90
14527;DHT22;7350;51.208;4.238;2023-03-24T09:40:17;18.30;99.90
14527;DHT22;7350;51.208;4.238;2023-03-24T09:42:49;18.30;99.90
14527;DHT22;7350;51.208;4.238;2023-03-24T09:45:19;18.30;99.90
14527;DHT22;7350;51.208;4.238;2023-03-24T09:47:50;18.30;99.90
14527;DHT22;7350;51.208;4.238;2023-03-24T09:50:21;18.20;99.90
14527;DHT22;7350;51.208;4.238;2023-03-24T09:52:53;18.30;99.90
14527;DHT22;7350;51.208;4.238;2023-03-24T09:55:25;18.30;99.90
14527;DHT22;7350;51.208;4.238;2023-03-24T09:57:57;18.20;99.90
14527;DHT22;7350;51.208;4.238;2023-03-24T10:00:27;18.20;99.90
14527;DHT22;7350;51.208;4.238;2023-03-24T10:02:59;18.20;99.90
14527;DHT22;7350;51.208;4.238;2023-03-24T10:05:32;18.20;99.90
14527;DHT22;7350;51.208;4.238;2023-03-24T10:08:08;18.20;99.90
14527;DHT22;7350;51.208;4.238;2023-03-24T10:10:47;18.20;99.90
14527;DHT22;7350;51.208;4.238;2023-03-24T10:13:23;18.20;99.90
14527;DHT22;7350;51.208;4.238;2023-03-24T10:16:00;18.20;99.90
14527;DHT22;7350;51.208;4.238;2023-03-24T10:18:33;18.20;99.90
14527;DHT22;7350;51.208;4.238;2023-03-24T10:21:10;18.20;99.90
14527;DHT22;7350;51.208;4.238;2023-03-24T10:23:44;18.20;99.90
14527;DHT22;7350;51.208;4.238;2023-03-24T10:26:25;18.20;99.90
14527;DHT22;7350;51.208;4.238;2023-03-24T10:29:08;18.20;99.90
14527;DHT22;7350;51.208;4.238;2023-03-24T10:31:37;18.20;99.90
14527;DHT22;7350;51.208;4.238;2023-03-24T10:34:07;18.20;99.90
14527;DHT22;7350;51.208;4.238;2023-03-24T10:36:36;18.20;99.90
14527;DHT22;7350;51.208;4.238;2023-03-24T10:39:04;18.20;99.90
14527;DHT22;7350;51.208;4.238;2023-03-24T10:41:34;18.20;99.90
14527;DHT22;7350;51.208;4.238;2023-03-24T10:44:02;18.20;99.90
14527;DHT22;7350;51.208;4.238;2023-03-24T10:46:30;18.10;99.90
14527;DHT22;7350;51.208;4.238;2023-03-24T10:49:07;18.10;99.90
14527;DHT22;7350;51.208;4.238;2023-03-24T10:51:35;18.10;99.90
14527;DHT22;7350;51.208;4.238;2023-03-24T10:54:14;18.10;99.90
14527;DHT22;7350;51.208;4.238;2023-03-24T10:56:44;18.10;99.90
14527;DHT22;7350;51.208;4.238;2023-03-24T10:59:21;18.10;99.90
14527;DHT22;7350;51.208;4.238;2023-03-24T11:01:54;18.10;99.90
14527;DHT22;7350;51.208;4.238;2023-03-24T11:04:23;18.10;99.90
14527;DHT22;7350;51.208;4.238;2023-03-24T11:06:59;18.10;99.90
14527;DHT22;7350;51.208;4.238;2023-03-24T11:09:27;18.10;99.90
14527;DHT22;7350;51.208;4.238;2023-03-24T11:11:55;18.10;99.90
14527;DHT22;7350;51.208;4.238;2023-03-24T11:14:28;18.10;99.90
14527;DHT22;7350;51.208;4.238;2023-03-24T11:17:02;18.00;99.90
14527;DHT22;7350;51.208;4.238;2023-03-24T11:19:35;18.00;99.90
14527;DHT22;7350;51.208;4.238;2023-03-24T11:22:05;18.10;99.90
14527;DHT22;7350;51.208;4.238;2023-03-24T11:24:35;18.10;99.90
14527;DHT22;7350;51.208;4.238;2023-03-24T11:27:04;18.10;99.90
14527;DHT22;7350;51.208;4.238;2023-03-24T11:29:33;18.10;99.90
14527;DHT22;7350;51.208;4.238;2023-03-24T11:32:11;18.10;99.90
14527;DHT22;7350;51.208;4.238;2023-03-24T11:34:43;18.10;99.90
14527;DHT22;7350;51.208;4.238;2023-03-24T11:37:12;18.10;99.90
14527;DHT22;7350;51.208;4.238;2023-03-24T11:39:39;18.20;99.90
14527;DHT22;7350;51.208;4.238;2023-03-24T11:42:17;18.20;99.90
14527;DHT22;7350;51.208;4.238;2023-03-24T11:44:46;18.30;99.90
14527;DHT22;7350;51.208;4.238;2023-03-24T11:47:20;18.30;99.90
14527;DHT22;7350;51.208;4.238;2023-03-24T11:49:52;18.30;99.90
14527;DHT22;7350;51.208;4.238;2023-03-24T11:52:23;18.30;99.90
14527;DHT22;7350;51.208;4.238;2023-03-24T11:54:53;18.30;99.90
14527;DHT22;7350;51.208;4.238;2023-03-24T11:57:30;18.30;99.90
14527;DHT22;7350;51.208;4.238;2023-03-24T12:00:05;18.30;99.90
14527;DHT22;7350;51.208;4.238;2023-03-24T12:02:47;18.30;99.90
14527;DHT22;7350;51.208;4.238;2023-03-24T12:05:26;18.30;99.90
14527;DHT22;7350;51.208;4.238;2023-03-24T12:08:22;18.40;99.90
14527;DHT22;7350;51.208;4.238;2023-03-24T12:11:03;18.40;99.90
14527;DHT22;7350;51.208;4.238;2023-03-24T12:13:36;18.40;99.90
14527;DHT22;7350;51.208;4.238;2023-03-24T12:19:10;18.40;99.90
14527;DHT22;7350;51.208;4.238;2023-03-24T12:21:49;18.40;99.90
14527;DHT22;7350;51.208;4.238;2023-03-24T12:24:27;18.40;99.90
14527;DHT22;7350;51.208;4.238;2023-03-24T12:26:59;18.40;99.90
14527;DHT22;7350;51.208;4.238;2023-03-24T12:29:46;18.40;99.90
14527;DHT22;7350;51.208;4.238;2023-03-24T12:32:29;18.40;99.90
14527;DHT22;7350;51.208;4.238;2023-03-24T12:35:27;18.40;99.90
14527;DHT22;7350;51.208;4.238;2023-03-24T12:41:02;18.40;99.90
14527;DHT22;7350;51.208;4.238;2023-03-24T12:43:41;18.40;99.90
14527;DHT22;7350;51.208;4.238;2023-03-24T12:46:27;18.40;99.90
14527;DHT22;7350;51.208;4.238;2023-03-24T12:49:25;18.40;99.90
14527;DHT22;7350;51.208;4.238;2023-03-24T12:52:12;18.40;99.90
14527;DHT22;7350;51.208;4.238;2023-03-24T12:54:48;18.50;99.90
14527;DHT22;7350;51.208;4.238;2023-03-24T12:57:20;18.50;99.90
14527;DHT22;7350;51.208;4.238;2023-03-24T12:59:50;18.50;99.90
14527;DHT22;7350;51.208;4.238;2023-03-24T13:02:25;18.40;99.90
14527;DHT22;7350;51.208;4.238;2023-03-24T13:04:58;18.40;99.90
14527;DHT22;7350;51.208;4.238;2023-03-24T13:07:29;18.50;99.90
14527;DHT22;7350;51.208;4.238;2023-03-24T13:10:01;18.40;99.90
14527;DHT22;7350;51.208;4.238;2023-03-24T13:12:37;18.40;99.90
14527;DHT22;7350;51.208;4.238;2023-03-24T13:15:14;18.40;99.90
14527;DHT22;7350;51.208;4.238;2023-03-24T13:17:47;18.40;99.90
14527;DHT22;7350;51.208;4.238;2023-03-24T13:20:23;18.50;99.90
14527;DHT22;7350;51.208;4.238;2023-03-24T13:22:51;18.40;99.90
14527;DHT22;7350;51.208;4.238;2023-03-24T13:25:24;18.40;99.90
14527;DHT22;7350;51.208;4.238;2023-03-24T13:27:59;18.50;99.90
14527;DHT22;7350;51.208;4.238;2023-03-24T13:30:33;18.50;99.90
14527;DHT22;7350;51.208;4.238;2023-03-24T13:33:05;18.60;99.90
14527;DHT22;7350;51.208;4.238;2023-03-24T13:36:02;18.60;99.90
14527;DHT22;7350;51.208;4.238;2023-03-24T13:38:36;18.60;99.90
14527;DHT22;7350;51.208;4.238;2023-03-24T13:41:05;18.70;99.90
14527;DHT22;7350;51.208;4.238;2023-03-24T13:43:33;18.70;99.90
14527;DHT22;7350;51.208;4.238;2023-03-24T13:46:01;18.80;99.90
14527;DHT22;7350;51.208;4.238;2023-03-24T13:48:32;18.80;99.90
14527;DHT22;7350;51.208;4.238;2023-03-24T13:51:04;18.80;99.90
14527;DHT22;7350;51.208;4.238;2023-03-24T13:53:36;18.80;99.90
14527;DHT22;7350;51.208;4.238;2023-03-24T13:56:06;18.80;99.90
14527;DHT22;7350;51.208;4.238;2023-03-24T13:58:47;18.80;99.90
14527;DHT22;7350;51.208;4.238;2023-03-24T14:01:35;18.80;99.90
14527;DHT22;7350;51.208;4.238;2023-03-24T14:04:38;18.80;99.90
14527;DHT22;7350;51.208;4.238;2023-03-24T14:07:31;18.80;99.90
14527;DHT22;7350;51.208;4.238;2023-03-24T14:10:00;18.90;99.90
14527;DHT22;7350;51.208;4.238;2023-03-24T14:12:30;19.10;99.90
14527;DHT22;7350;51.208;4.238;2023-03-24T14:15:25;19.20;99.90
14527;DHT22;7350;51.208;4.238;2023-03-24T14:17:54;19.30;99.90
14527;DHT22;7350;51.208;4.238;2023-03-24T14:20:41;19.30;99.90
14527;DHT22;7350;51.208;4.238;2023-03-24T14:23:22;19.40;99.90
14527;DHT22;7350;51.208;4.238;2023-03-24T14:25:52;19.30;99.90
14527;DHT22;7350;51.208;4.238;2023-03-24T14:28:24;19.30;99.90
14527;DHT22;7350;51.208;4.238;2023-03-24T14:31:08;19.20;99.90
14527;DHT22;7350;51.208;4.238;2023-03-24T14:33:38;19.20;99.90
14527;DHT22;7350;51.208;4.238;2023-03-24T14:36:08;19.20;99.90
14527;DHT22;7350;51.208;4.238;2023-03-24T14:38:40;19.20;99.90
14527;DHT22;7350;51.208;4.238;2023-03-24T14:41:13;19.20;99.90
14527;DHT22;7350;51.208;4.238;2023-03-24T14:43:58;19.20;99.90
14527;DHT22;7350;51.208;4.238;2023-03-24T14:46:37;19.20;99.90
14527;DHT22;7350;51.208;4.238;2023-03-24T14:49:12;19.20;99.90
14527;DHT22;7350;51.208;4.238;2023-03-24T14:51:44;19.20;99.90
14527;DHT22;7350;51.208;4.238;2023-03-24T14:54:16;19.20;99.90
14527;DHT22;7350;51.208;4.238;2023-03-24T14:56:47;19.20;99.90
14527;DHT22;7350;51.208;4.238;2023-03-24T14:59:25;19.30;99.90
14527;DHT22;7350;51.208;4.238;2023-03-24T15:01:59;19.30;99.90
14527;DHT22;7350;51.208;4.238;2023-03-24T15:04:26;19.30;99.90
14527;DHT22;7350;51.208;4.238;2023-03-24T15:06:55;19.30;99.90
14527;DHT22;7350;51.208;4.238;2023-03-24T15:09:22;19.20;99.90
14527;DHT22;7350;51.208;4.238;2023-03-24T15:11:49;19.20;99.90
14527;DHT22;7350;51.208;4.238;2023-03-24T15:14:22;19.20;99.90
14527;DHT22;7350;51.208;4.238;2023-03-24T15:16:52;19.20;99.90
14527;DHT22;7350;51.208;4.238;2023-03-24T15:19:21;19.30;99.90
14527;DHT22;7350;51.208;4.238;2023-03-24T15:21:56;19.30;99.90
14527;DHT22;7350;51.208;4.238;2023-03-24T15:24:30;19.20;99.90
14527;DHT22;7350;51.208;4.238;2023-03-24T15:27:28;19.30;99.90
14527;DHT22;7350;51.208;4.238;2023-03-24T15:29:58;19.20;99.90
14527;DHT22;7350;51.208;4.238;2023-03-24T15:32:27;19.10;99.90
14527;DHT22;7350;51.208;4.238;2023-03-24T15:34:58;19.20;99.90
14527;DHT22;7350;51.208;4.238;2023-03-24T15:37:31;19.20;99.90
14527;DHT22;7350;51.208;4.238;2023-03-24T15:40:00;19.20;99.90
14527;DHT22;7350;51.208;4.238;2023-03-24T15:42:27;19.10;99.90
14527;DHT22;7350;51.208;4.238;2023-03-24T15:44:54;19.20;99.90
14527;DHT22;7350;51.208;4.238;2023-03-24T15:47:22;19.20;99.90
14527;DHT22;7350;51.208;4.238;2023-03-24T15:49:52;19.20;99.90
14527;DHT22;7350;51.208;4.238;2023-03-24T15:52:26;19.20;99.90
14527;DHT22;7350;51.208;4.238;2023-03-24T15:54:56;19.20;99.90
14527;DHT22;7350;51.208;4.238;2023-03-24T15:57:26;19.20;99.90
14527;DHT22;7350;51.208;4.238;2023-03-24T16:00:03;19.20;99.90
14527;DHT22;7350;51.208;4.238;2023-03-24T16:02:40;19.20;99.90
14527;DHT22;7350;51.208;4.238;2023-03-24T16:05:14;19.20;99.90
14527;DHT22;7350;51.208;4.238;2023-03-24T16:07:51;19.10;99.90
14527;DHT22;7350;51.208;4.238;2023-03-24T16:10:29;19.10;99.90
14527;DHT22;7350;51.208;4.238;2023-03-24T16:13:14;19.10;99.90
14527;DHT22;7350;51.208;4.238;2023-03-24T16:15:42;19.10;99.90
14527;DHT22;7350;51.208;4.238;2023-03-24T16:18:14;19.00;99.90
14527;DHT22;7350;51.208;4.238;2023-03-24T16:20:42;19.00;99.90
14527;DHT22;7350;51.208;4.238;2023-03-24T16:23:11;19.00;99.90
14527;DHT22;7350;51.208;4.238;2023-03-24T16:25:38;19.10;99.90
14527;DHT22;7350;51.208;4.238;2023-03-24T16:28:09;19.00;99.90